sensor_id;sensor_type;location;lat;lon;timestamp;temperature;humidity
47532;DHT22;33273;52.254;7.988;2022-12-29T00:01:28;9.10;99.90
47532;DHT22;33273;52.254;7.988;2022-12-29T00:03:54;9.10;99.90
47532;DHT22;33273;52.254;7.988;2022-12-29T00:06:21;9.10;99.90
47532;DHT22;33273;52.254;7.988;2022-12-29T00:08:47;9.10;99.90
47532;DHT22;33273;52.254;7.988;2022-12-29T00:11:20;9.10;99.90
47532;DHT22;33273;52.254;7.988;2022-12-29T00:13:47;9.10;99.90
47532;DHT22;33273;52.254;7.988;2022-12-29T00:16:39;9.20;99.90
47532;DHT22;33273;52.254;7.988;2022-12-29T00:19:06;9.20;99.90
47532;DHT22;33273;52.254;7.988;2022-12-29T00:21:32;9.20;99.90
47532;DHT22;33273;52.254;7.988;2022-12-29T00:24:18;9.20;99.90
47532;DHT22;33273;52.254;7.988;2022-12-29T00:29:42;9.30;99.90
47532;DHT22;33273;52.254;7.988;2022-12-29T00:32:40;9.30;99.90
47532;DHT22;33273;52.254;7.988;2022-12-29T00:35:39;9.30;99.90
47532;DHT22;33273;52.254;7.988;2022-12-29T00:38:08;9.30;99.90
47532;DHT22;33273;52.254;7.988;2022-12-29T00:40:52;9.30;99.90
47532;DHT22;33273;52.254;7.988;2022-12-29T00:43:37;9.40;99.90
47532;DHT22;33273;52.254;7.988;2022-12-29T00:46:22;9.40;99.90
47532;DHT22;33273;52.254;7.988;2022-12-29T00:48:49;9.40;99.90
47532;DHT22;33273;52.254;7.988;2022-12-29T00:51:44;9.40;99.90
47532;DHT22;33273;52.254;7.988;2022-12-29T00:54:11;9.50;99.90
47532;DHT22;33273;52.254;7.988;2022-12-29T00:56:37;9.50;99.90
47532;DHT22;33273;52.254;7.988;2022-12-29T00:59:05;9.50;99.90
47532;DHT22;33273;52.254;7.988;2022-12-29T01:01:33;9.50;99.90
47532;DHT22;33273;52.254;7.988;2022-12-29T01:04:00;9.50;99.90
47532;DHT22;33273;52.254;7.988;2022-12-29T01:06:26;9.60;99.90
47532;DHT22;33273;52.254;7.988;2022-12-29T01:08:52;9.50;99.90
47532;DHT22;33273;52.254;7.988;2022-12-29T01:11:38;9.60;99.90
47532;DHT22;33273;52.254;7.988;2022-12-29T01:14:06;9.50;99.90
47532;DHT22;33273;52.254;7.988;2022-12-29T01:16:32;9.50;99.90
47532;DHT22;33273;52.254;7.988;2022-12-29T01:18:58;9.60;99.90
47532;DHT22;33273;52.254;7.988;2022-12-29T01:21:24;9.60;99.90
47532;DHT22;33273;52.254;7.988;2022-12-29T01:23:51;9.50;99.90
47532;DHT22;33273;52.254;7.988;2022-12-29T01:26:17;9.60;99.90
47532;DHT22;33273;52.254;7.988;2022-12-29T01:28:44;9.60;99.90
47532;DHT22;33273;52.254;7.988;2022-12-29T01:31:12;9.60;99.90
47532;DHT22;33273;52.254;7.988;2022-12-29T01:33:38;9.60;99.90
47532;DHT22;33273;52.254;7.988;2022-12-29T01:36:06;9.60;99.90
47532;DHT22;33273;52.254;7.988;2022-12-29T01:38:33;9.60;99.90
47532;DHT22;33273;52.254;7.988;2022-12-29T01:41:00;9.60;99.90
47532;DHT22;33273;52.254;7.988;2022-12-29T01:43:46;9.70;99.90
47532;DHT22;33273;52.254;7.988;2022-12-29T01:46:26;9.70;99.90
47532;DHT22;33273;52.254;7.988;2022-12-29T01:51:31;9.60;99.90
47532;DHT22;33273;52.254;7.988;2022-12-29T01:53:58;9.60;99.90
47532;DHT22;33273;52.254;7.988;2022-12-29T01:56:26;9.60;99.90
47532;DHT22;33273;52.254;7.988;2022-12-29T01:58:58;9.60;99.90
47532;DHT22;33273;52.254;7.988;2022-12-29T02:01:28;9.60;99.90
47532;DHT22;33273;52.254;7.988;2022-12-29T02:03:54;9.60;99.90
47532;DHT22;33273;52.254;7.988;2022-12-29T02:06:27;9.60;99.90
47532;DHT22;33273;52.254;7.988;2022-12-29T02:08:55;9.60;99.90
47532;DHT22;33273;52.254;7.988;2022-12-29T02:11:23;9.70;99.90
47532;DHT22;33273;52.254;7.988;2022-12-29T02:13:52;9.60;99.90
47532;DHT22;33273;52.254;7.988;2022-12-29T02:16:25;9.60;99.90
47532;DHT22;33273;52.254;7.988;2022-12-29T02:27:48;9.60;99.90
47532;DHT22;33273;52.254;7.988;2022-12-29T02:33:12;9.70;99.90
47532;DHT22;33273;52.254;7.988;2022-12-29T02:41:33;9.70;99.90
47532;DHT22;33273;52.254;7.988;2022-12-29T02:47:09;9.80;99.90
47532;DHT22;33273;52.254;7.988;2022-12-29T02:52:16;9.70;99.90
47532;DHT22;33273;52.254;7.988;2022-12-29T02:54:43;9.80;99.90
47532;DHT22;33273;52.254;7.988;2022-12-29T03:05:06;9.80;99.90
47532;DHT22;33273;52.254;7.988;2022-12-29T03:10:40;9.90;99.90
47532;DHT22;33273;52.254;7.988;2022-12-29T03:13:24;9.80;99.90
47532;DHT22;33273;52.254;7.988;2022-12-29T03:16:24;9.80;99.90
47532;DHT22;33273;52.254;7.988;2022-12-29T03:18:55;9.80;99.90
47532;DHT22;33273;52.254;7.988;2022-12-29T03:21:32;9.90;99.90
47532;DHT22;33273;52.254;7.988;2022-12-29T03:24:22;9.80;99.90
47532;DHT22;33273;52.254;7.988;2022-12-29T03:26:52;9.90;99.90
47532;DHT22;33273;52.254;7.988;2022-12-29T03:29:20;9.90;99.90
47532;DHT22;33273;52.254;7.988;2022-12-29T03:31:49;9.90;99.90
47532;DHT22;33273;52.254;7.988;2022-12-29T03:34:18;9.90;99.90
47532;DHT22;33273;52.254;7.988;2022-12-29T03:36:52;9.90;99.90
47532;DHT22;33273;52.254;7.988;2022-12-29T03:39:21;9.90;99.90
47532;DHT22;33273;52.254;7.988;2022-12-29T03:41:51;9.90;99.90
47532;DHT22;33273;52.254;7.988;2022-12-29T03:44:21;9.90;99.90
47532;DHT22;33273;52.254;7.988;2022-12-29T03:46:48;9.90;99.90
47532;DHT22;33273;52.254;7.988;2022-12-29T03:49:16;10.00;99.90
47532;DHT22;33273;52.254;7.988;2022-12-29T03:51:41;10.00;99.90
47532;DHT22;33273;52.254;7.988;2022-12-29T03:54:07;10.00;99.90
47532;DHT22;33273;52.254;7.988;2022-12-29T03:56:33;10.10;99.90
47532;DHT22;33273;52.254;7.988;2022-12-29T03:59:01;10.10;99.90
47532;DHT22;33273;52.254;7.988;2022-12-29T04:01:31;10.10;99.90
47532;DHT22;33273;52.254;7.988;2022-12-29T04:03:57;10.20;99.90
47532;DHT22;33273;52.254;7.988;2022-12-29T04:06:23;10.20;99.90
47532;DHT22;33273;52.254;7.988;2022-12-29T04:09:03;10.20;99.80
47532;DHT22;33273;52.254;7.988;2022-12-29T04:11:34;10.20;99.20
47532;DHT22;33273;52.254;7.988;2022-12-29T04:14:01;10.20;98.90
47532;DHT22;33273;52.254;7.988;2022-12-29T04:16:29;10.20;98.70
47532;DHT22;33273;52.254;7.988;2022-12-29T04:18:55;10.20;98.40
47532;DHT22;33273;52.254;7.988;2022-12-29T04:21:22;10.20;98.00
47532;DHT22;33273;52.254;7.988;2022-12-29T04:23:48;10.20;97.70
47532;DHT22;33273;52.254;7.988;2022-12-29T04:26:16;10.30;97.00
47532;DHT22;33273;52.254;7.988;2022-12-29T04:29:05;10.30;96.60
47532;DHT22;33273;52.254;7.988;2022-12-29T04:31:41;10.30;96.40
47532;DHT22;33273;52.254;7.988;2022-12-29T04:34:08;10.40;95.40
47532;DHT22;33273;52.254;7.988;2022-12-29T04:36:34;10.40;95.60
47532;DHT22;33273;52.254;7.988;2022-12-29T04:39:00;10.40;95.40
47532;DHT22;33273;52.254;7.988;2022-12-29T04:41:27;10.40;94.90
47532;DHT22;33273;52.254;7.988;2022-12-29T04:43:53;10.40;94.80
47532;DHT22;33273;52.254;7.988;2022-12-29T04:46:29;10.40;94.40
47532;DHT22;33273;52.254;7.988;2022-12-29T04:48:59;10.40;94.50
47532;DHT22;33273;52.254;7.988;2022-12-29T04:52:05;10.40;94.70
47532;DHT22;33273;52.254;7.988;2022-12-29T04:54:34;10.40;94.40
47532;DHT22;33273;52.254;7.988;2022-12-29T04:57:13;10.40;94.60
47532;DHT22;33273;52.254;7.988;2022-12-29T04:59:39;10.40;94.40
47532;DHT22;33273;52.254;7.988;2022-12-29T05:02:06;10.40;94.00
47532;DHT22;33273;52.254;7.988;2022-12-29T05:04:34;10.50;94.50
47532;DHT22;33273;52.254;7.988;2022-12-29T05:07:00;10.40;94.40
47532;DHT22;33273;52.254;7.988;2022-12-29T05:09:26;10.40;94.40
47532;DHT22;33273;52.254;7.988;2022-12-29T05:11:52;10.40;94.80
47532;DHT22;33273;52.254;7.988;2022-12-29T05:14:19;10.30;95.90
47532;DHT22;33273;52.254;7.988;2022-12-29T05:16:45;10.30;96.60
47532;DHT22;33273;52.254;7.988;2022-12-29T05:19:11;10.30;97.30
47532;DHT22;33273;52.254;7.988;2022-12-29T05:21:37;10.20;98.30
47532;DHT22;33273;52.254;7.988;2022-12-29T05:24:04;10.20;99.40
47532;DHT22;33273;52.254;7.988;2022-12-29T05:26:30;10.10;99.90
47532;DHT22;33273;52.254;7.988;2022-12-29T05:29:04;10.00;99.90
47532;DHT22;33273;52.254;7.988;2022-12-29T05:31:30;10.00;99.90
47532;DHT22;33273;52.254;7.988;2022-12-29T05:33:55;9.90;99.90
47532;DHT22;33273;52.254;7.988;2022-12-29T05:36:22;9.90;99.90
47532;DHT22;33273;52.254;7.988;2022-12-29T05:38:52;9.80;99.90
47532;DHT22;33273;52.254;7.988;2022-12-29T05:41:18;9.80;99.90
47532;DHT22;33273;52.254;7.988;2022-12-29T05:44:04;9.80;99.90
47532;DHT22;33273;52.254;7.988;2022-12-29T05:46:44;9.70;99.90
47532;DHT22;33273;52.254;7.988;2022-12-29T05:49:16;9.60;99.90
47532;DHT22;33273;52.254;7.988;2022-12-29T05:51:57;9.60;99.90
47532;DHT22;33273;52.254;7.988;2022-12-29T05:54:23;9.60;99.90
47532;DHT22;33273;52.254;7.988;2022-12-29T05:56:51;9.50;99.90
47532;DHT22;33273;52.254;7.988;2022-12-29T05:59:23;9.50;99.90
47532;DHT22;33273;52.254;7.988;2022-12-29T06:01:50;9.40;99.90
47532;DHT22;33273;52.254;7.988;2022-12-29T06:04:16;9.40;99.90
47532;DHT22;33273;52.254;7.988;2022-12-29T06:06:42;9.30;99.90
47532;DHT22;33273;52.254;7.988;2022-12-29T06:09:15;9.30;99.90
47532;DHT22;33273;52.254;7.988;2022-12-29T06:11:42;9.30;99.90
47532;DHT22;33273;52.254;7.988;2022-12-29T06:14:09;9.20;99.90
47532;DHT22;33273;52.254;7.988;2022-12-29T06:16:35;9.20;99.90
47532;DHT22;33273;52.254;7.988;2022-12-29T06:19:04;9.20;99.90
47532;DHT22;33273;52.254;7.988;2022-12-29T06:21:30;9.20;99.90
47532;DHT22;33273;52.254;7.988;2022-12-29T06:23:59;9.10;99.90
47532;DHT22;33273;52.254;7.988;2022-12-29T06:26:25;9.10;99.90
47532;DHT22;33273;52.254;7.988;2022-12-29T06:28:51;9.10;99.90
47532;DHT22;33273;52.254;7.988;2022-12-29T06:31:17;9.10;99.90
47532;DHT22;33273;52.254;7.988;2022-12-29T06:33:44;9.00;99.90
47532;DHT22;33273;52.254;7.988;2022-12-29T06:36:11;9.00;99.90
47532;DHT22;33273;52.254;7.988;2022-12-29T06:38:37;9.00;99.90
47532;DHT22;33273;52.254;7.988;2022-12-29T06:41:03;8.90;99.90
47532;DHT22;33273;52.254;7.988;2022-12-29T06:43:36;8.80;99.90
47532;DHT22;33273;52.254;7.988;2022-12-29T06:46:23;8.80;99.90
47532;DHT22;33273;52.254;7.988;2022-12-29T06:48:49;8.80;99.90
47532;DHT22;33273;52.254;7.988;2022-12-29T06:51:15;8.80;99.90
47532;DHT22;33273;52.254;7.988;2022-12-29T06:53:41;8.80;99.90
47532;DHT22;33273;52.254;7.988;2022-12-29T06:56:07;8.80;99.90
47532;DHT22;33273;52.254;7.988;2022-12-29T06:58:34;8.80;99.90
47532;DHT22;33273;52.254;7.988;2022-12-29T07:00:59;8.80;99.90
47532;DHT22;33273;52.254;7.988;2022-12-29T07:03:25;8.80;99.90
47532;DHT22;33273;52.254;7.988;2022-12-29T07:05:51;8.90;99.90
47532;DHT22;33273;52.254;7.988;2022-12-29T07:08:18;8.90;99.90
47532;DHT22;33273;52.254;7.988;2022-12-29T07:10:43;8.90;99.90
47532;DHT22;33273;52.254;7.988;2022-12-29T07:13:09;8.90;99.90
47532;DHT22;33273;52.254;7.988;2022-12-29T07:15:37;8.90;99.90
47532;DHT22;33273;52.254;7.988;2022-12-29T07:18:04;8.90;99.90
47532;DHT22;33273;52.254;7.988;2022-12-29T07:20:31;8.90;99.90
47532;DHT22;33273;52.254;7.988;2022-12-29T07:22:57;8.80;99.90
47532;DHT22;33273;52.254;7.988;2022-12-29T07:25:26;8.80;99.90
47532;DHT22;33273;52.254;7.988;2022-12-29T07:27:53;8.80;99.90
47532;DHT22;33273;52.254;7.988;2022-12-29T07:30:19;8.70;99.90
47532;DHT22;33273;52.254;7.988;2022-12-29T07:32:45;8.70;99.90
47532;DHT22;33273;52.254;7.988;2022-12-29T07:35:11;8.70;99.90
47532;DHT22;33273;52.254;7.988;2022-12-29T07:37:37;8.60;99.80
47532;DHT22;33273;52.254;7.988;2022-12-29T07:40:03;8.60;99.70
47532;DHT22;33273;52.254;7.988;2022-12-29T07:42:30;8.60;99.80
47532;DHT22;33273;52.254;7.988;2022-12-29T07:44:58;8.60;99.90
47532;DHT22;33273;52.254;7.988;2022-12-29T07:47:27;8.60;99.90
47532;DHT22;33273;52.254;7.988;2022-12-29T07:49:54;8.50;99.90
47532;DHT22;33273;52.254;7.988;2022-12-29T07:52:20;8.50;99.60
47532;DHT22;33273;52.254;7.988;2022-12-29T07:54:47;8.40;99.50
47532;DHT22;33273;52.254;7.988;2022-12-29T07:57:13;8.40;99.90
47532;DHT22;33273;52.254;7.988;2022-12-29T07:59:39;8.40;99.30
47532;DHT22;33273;52.254;7.988;2022-12-29T08:02:04;8.40;99.30
47532;DHT22;33273;52.254;7.988;2022-12-29T08:04:30;8.40;99.10
47532;DHT22;33273;52.254;7.988;2022-12-29T08:06:57;8.40;98.90
47532;DHT22;33273;52.254;7.988;2022-12-29T08:09:23;8.30;98.60
47532;DHT22;33273;52.254;7.988;2022-12-29T08:11:48;8.30;98.30
47532;DHT22;33273;52.254;7.988;2022-12-29T08:14:14;8.40;98.10
47532;DHT22;33273;52.254;7.988;2022-12-29T08:16:40;8.40;98.10
47532;DHT22;33273;52.254;7.988;2022-12-29T08:19:06;8.40;98.20
47532;DHT22;33273;52.254;7.988;2022-12-29T08:21:32;8.40;98.20
47532;DHT22;33273;52.254;7.988;2022-12-29T08:23:58;8.40;97.90
47532;DHT22;33273;52.254;7.988;2022-12-29T08:26:24;8.40;97.90
47532;DHT22;33273;52.254;7.988;2022-12-29T08:28:52;8.40;97.80
47532;DHT22;33273;52.254;7.988;2022-12-29T08:31:19;8.50;97.70
47532;DHT22;33273;52.254;7.988;2022-12-29T08:33:46;8.50;97.80
47532;DHT22;33273;52.254;7.988;2022-12-29T08:36:12;8.60;97.90
47532;DHT22;33273;52.254;7.988;2022-12-29T08:38:38;8.60;96.90
47532;DHT22;33273;52.254;7.988;2022-12-29T08:41:05;8.60;96.30
47532;DHT22;33273;52.254;7.988;2022-12-29T08:43:31;8.70;96.20
47532;DHT22;33273;52.254;7.988;2022-12-29T08:45:58;8.70;96.20
47532;DHT22;33273;52.254;7.988;2022-12-29T08:48:24;8.70;96.10
47532;DHT22;33273;52.254;7.988;2022-12-29T08:50:50;8.70;96.30
47532;DHT22;33273;52.254;7.988;2022-12-29T08:53:16;8.80;95.90
47532;DHT22;33273;52.254;7.988;2022-12-29T08:55:45;8.80;95.40
47532;DHT22;33273;52.254;7.988;2022-12-29T08:58:12;8.90;95.60
47532;DHT22;33273;52.254;7.988;2022-12-29T09:00:43;8.90;94.90
47532;DHT22;33273;52.254;7.988;2022-12-29T09:03:09;8.90;94.40
47532;DHT22;33273;52.254;7.988;2022-12-29T09:05:35;9.00;94.40
47532;DHT22;33273;52.254;7.988;2022-12-29T09:08:01;9.00;94.10
47532;DHT22;33273;52.254;7.988;2022-12-29T09:10:27;9.00;93.30
47532;DHT22;33273;52.254;7.988;2022-12-29T09:12:54;9.00;93.00
47532;DHT22;33273;52.254;7.988;2022-12-29T09:15:19;9.10;93.20
47532;DHT22;33273;52.254;7.988;2022-12-29T09:17:47;9.10;92.10
47532;DHT22;33273;52.254;7.988;2022-12-29T09:20:17;9.20;91.90
47532;DHT22;33273;52.254;7.988;2022-12-29T09:22:44;9.30;90.70
47532;DHT22;33273;52.254;7.988;2022-12-29T09:25:11;9.30;90.50
47532;DHT22;33273;52.254;7.988;2022-12-29T09:27:37;9.30;89.10
47532;DHT22;33273;52.254;7.988;2022-12-29T09:30:05;9.40;87.50
47532;DHT22;33273;52.254;7.988;2022-12-29T09:32:32;9.40;87.10
47532;DHT22;33273;52.254;7.988;2022-12-29T09:35:00;9.40;84.30
47532;DHT22;33273;52.254;7.988;2022-12-29T09:37:26;9.40;81.30
47532;DHT22;33273;52.254;7.988;2022-12-29T09:39:51;9.50;79.20
47532;DHT22;33273;52.254;7.988;2022-12-29T09:42:45;9.50;77.10
47532;DHT22;33273;52.254;7.988;2022-12-29T09:45:24;9.50;75.70
47532;DHT22;33273;52.254;7.988;2022-12-29T09:47:57;9.60;74.10
47532;DHT22;33273;52.254;7.988;2022-12-29T09:50:32;9.60;74.10
47532;DHT22;33273;52.254;7.988;2022-12-29T09:55:41;9.60;73.20
47532;DHT22;33273;52.254;7.988;2022-12-29T10:01:07;9.80;76.70
47532;DHT22;33273;52.254;7.988;2022-12-29T10:03:49;9.80;73.90
47532;DHT22;33273;52.254;7.988;2022-12-29T10:06:44;9.90;71.80
47532;DHT22;33273;52.254;7.988;2022-12-29T10:12:30;10.00;70.10
47532;DHT22;33273;52.254;7.988;2022-12-29T10:18:28;10.10;69.00
47532;DHT22;33273;52.254;7.988;2022-12-29T10:23:51;10.10;67.00
47532;DHT22;33273;52.254;7.988;2022-12-29T10:26:27;10.10;66.40
47532;DHT22;33273;52.254;7.988;2022-12-29T10:29:06;10.10;65.70
47532;DHT22;33273;52.254;7.988;2022-12-29T10:31:37;10.20;66.00
47532;DHT22;33273;52.254;7.988;2022-12-29T10:36:49;10.20;65.00
47532;DHT22;33273;52.254;7.988;2022-12-29T10:39:45;10.20;65.60
47532;DHT22;33273;52.254;7.988;2022-12-29T10:42:26;10.20;65.00
47532;DHT22;33273;52.254;7.988;2022-12-29T10:44:56;10.20;66.20
47532;DHT22;33273;52.254;7.988;2022-12-29T10:47:32;10.20;66.30
47532;DHT22;33273;52.254;7.988;2022-12-29T10:50:00;10.20;66.00
47532;DHT22;33273;52.254;7.988;2022-12-29T10:52:31;10.30;66.10
47532;DHT22;33273;52.254;7.988;2022-12-29T10:55:12;10.30;65.60
47532;DHT22;33273;52.254;7.988;2022-12-29T10:57:51;10.30;65.60
47532;DHT22;33273;52.254;7.988;2022-12-29T11:00:20;10.30;65.90
47532;DHT22;33273;52.254;7.988;2022-12-29T11:08:21;10.30;66.50
47532;DHT22;33273;52.254;7.988;2022-12-29T11:11:01;10.30;66.60
47532;DHT22;33273;52.254;7.988;2022-12-29T11:13:50;10.30;66.30
47532;DHT22;33273;52.254;7.988;2022-12-29T11:16:33;10.30;66.90
47532;DHT22;33273;52.254;7.988;2022-12-29T11:19:01;10.30;66.90
47532;DHT22;33273;52.254;7.988;2022-12-29T11:21:35;10.30;67.50
47532;DHT22;33273;52.254;7.988;2022-12-29T11:24:20;10.30;67.90
47532;DHT22;33273;52.254;7.988;2022-12-29T11:27:13;10.40;67.10
47532;DHT22;33273;52.254;7.988;2022-12-29T11:29:41;10.40;66.80
47532;DHT22;33273;52.254;7.988;2022-12-29T11:32:33;10.40;66.70
47532;DHT22;33273;52.254;7.988;2022-12-29T11:34:59;10.40;66.80
47532;DHT22;33273;52.254;7.988;2022-12-29T11:37:27;10.40;67.20
47532;DHT22;33273;52.254;7.988;2022-12-29T11:40:15;10.40;67.50
47532;DHT22;33273;52.254;7.988;2022-12-29T11:42:48;10.40;67.00
47532;DHT22;33273;52.254;7.988;2022-12-29T11:45:24;10.50;66.70
47532;DHT22;33273;52.254;7.988;2022-12-29T11:48:26;10.50;66.40
47532;DHT22;33273;52.254;7.988;2022-12-29T11:50:51;10.50;67.00
47532;DHT22;33273;52.254;7.988;2022-12-29T11:56:08;10.50;67.00
47532;DHT22;33273;52.254;7.988;2022-12-29T11:58:36;10.60;66.60
47532;DHT22;33273;52.254;7.988;2022-12-29T12:03:37;10.50;67.70
47532;DHT22;33273;52.254;7.988;2022-12-29T12:06:07;10.50;67.90
47532;DHT22;33273;52.254;7.988;2022-12-29T12:08:44;10.50;68.70
47532;DHT22;33273;52.254;7.988;2022-12-29T12:11:25;10.50;69.40
47532;DHT22;33273;52.254;7.988;2022-12-29T12:14:04;10.50;68.90
47532;DHT22;33273;52.254;7.988;2022-12-29T12:16:57;10.50;69.20
47532;DHT22;33273;52.254;7.988;2022-12-29T12:22:23;10.50;69.60
47532;DHT22;33273;52.254;7.988;2022-12-29T12:25:23;10.50;69.40
47532;DHT22;33273;52.254;7.988;2022-12-29T12:27:56;10.40;70.30
47532;DHT22;33273;52.254;7.988;2022-12-29T12:30:29;10.40;71.10
47532;DHT22;33273;52.254;7.988;2022-12-29T12:36:38;10.30;73.20
47532;DHT22;33273;52.254;7.988;2022-12-29T13:10:05;10.00;72.30
47532;DHT22;33273;52.254;7.988;2022-12-29T13:29:20;10.10;70.70
47532;DHT22;33273;52.254;7.988;2022-12-29T13:37:27;10.10;70.80
47532;DHT22;33273;52.254;7.988;2022-12-29T13:40:02;10.10;70.90
47532;DHT22;33273;52.254;7.988;2022-12-29T13:42:29;10.10;71.20
47532;DHT22;33273;52.254;7.988;2022-12-29T13:45:02;10.10;70.40
47532;DHT22;33273;52.254;7.988;2022-12-29T13:47:37;10.10;70.20
47532;DHT22;33273;52.254;7.988;2022-12-29T13:50:13;10.10;70.20
47532;DHT22;33273;52.254;7.988;2022-12-29T14:01:02;9.90;69.50
47532;DHT22;33273;52.254;7.988;2022-12-29T14:06:18;10.00;69.90
47532;DHT22;33273;52.254;7.988;2022-12-29T14:08:45;10.00;70.10
47532;DHT22;33273;52.254;7.988;2022-12-29T14:11:14;10.00;69.30
47532;DHT22;33273;52.254;7.988;2022-12-29T14:13:45;10.00;68.90
47532;DHT22;33273;52.254;7.988;2022-12-29T14:16:34;9.90;68.60
47532;DHT22;33273;52.254;7.988;2022-12-29T14:19:11;9.90;68.40
47532;DHT22;33273;52.254;7.988;2022-12-29T14:21:39;9.90;68.20
47532;DHT22;33273;52.254;7.988;2022-12-29T14:26:54;9.80;68.10
47532;DHT22;33273;52.254;7.988;2022-12-29T14:31:52;9.80;67.50
47532;DHT22;33273;52.254;7.988;2022-12-29T14:37:02;9.80;66.80
47532;DHT22;33273;52.254;7.988;2022-12-29T14:39:43;9.70;67.40
47532;DHT22;33273;52.254;7.988;2022-12-29T14:47:44;9.70;68.70
47532;DHT22;33273;52.254;7.988;2022-12-29T14:53:01;9.60;69.10
47532;DHT22;33273;52.254;7.988;2022-12-29T14:55:53;9.60;69.10
47532;DHT22;33273;52.254;7.988;2022-12-29T14:58:35;9.60;69.10
47532;DHT22;33273;52.254;7.988;2022-12-29T15:01:04;9.60;69.10
47532;DHT22;33273;52.254;7.988;2022-12-29T15:03:46;9.60;69.50
47532;DHT22;33273;52.254;7.988;2022-12-29T15:06:17;9.60;69.60
47532;DHT22;33273;52.254;7.988;2022-12-29T15:11:42;9.60;69.80
47532;DHT22;33273;52.254;7.988;2022-12-29T15:16:56;9.50;69.80
47532;DHT22;33273;52.254;7.988;2022-12-29T15:19:23;9.50;70.40
47532;DHT22;33273;52.254;7.988;2022-12-29T15:21:50;9.40;70.60
47532;DHT22;33273;52.254;7.988;2022-12-29T15:24:16;9.40;71.20
47532;DHT22;33273;52.254;7.988;2022-12-29T15:26:44;9.40;71.90
47532;DHT22;33273;52.254;7.988;2022-12-29T15:31:59;9.50;73.40
47532;DHT22;33273;52.254;7.988;2022-12-29T15:34:29;9.50;73.30
47532;DHT22;33273;52.254;7.988;2022-12-29T15:36:58;9.40;72.60
47532;DHT22;33273;52.254;7.988;2022-12-29T15:39:30;9.40;72.20
47532;DHT22;33273;52.254;7.988;2022-12-29T15:42:02;9.30;72.20
47532;DHT22;33273;52.254;7.988;2022-12-29T15:44:40;9.30;72.40
47532;DHT22;33273;52.254;7.988;2022-12-29T15:47:24;9.30;72.50
47532;DHT22;33273;52.254;7.988;2022-12-29T15:50:12;9.30;72.90
47532;DHT22;33273;52.254;7.988;2022-12-29T15:52:43;9.30;73.10
47532;DHT22;33273;52.254;7.988;2022-12-29T15:55:32;9.30;73.50
47532;DHT22;33273;52.254;7.988;2022-12-29T15:58:01;9.20;74.60
47532;DHT22;33273;52.254;7.988;2022-12-29T16:00:30;9.20;76.80
47532;DHT22;33273;52.254;7.988;2022-12-29T16:02:59;9.20;79.00
47532;DHT22;33273;52.254;7.988;2022-12-29T16:05:35;9.10;80.20
47532;DHT22;33273;52.254;7.988;2022-12-29T16:08:02;9.10;83.40
47532;DHT22;33273;52.254;7.988;2022-12-29T16:10:41;8.90;85.50
47532;DHT22;33273;52.254;7.988;2022-12-29T16:16:06;8.80;86.80
47532;DHT22;33273;52.254;7.988;2022-12-29T16:18:36;8.70;87.10
47532;DHT22;33273;52.254;7.988;2022-12-29T16:21:04;8.70;87.90
47532;DHT22;33273;52.254;7.988;2022-12-29T16:23:31;8.60;88.10
47532;DHT22;33273;52.254;7.988;2022-12-29T16:25:58;8.60;89.50
47532;DHT22;33273;52.254;7.988;2022-12-29T16:28:25;8.50;90.20
47532;DHT22;33273;52.254;7.988;2022-12-29T16:31:05;8.40;90.50
47532;DHT22;33273;52.254;7.988;2022-12-29T16:33:39;8.30;91.20
47532;DHT22;33273;52.254;7.988;2022-12-29T16:38:51;8.10;92.90
47532;DHT22;33273;52.254;7.988;2022-12-29T16:41:29;8.10;93.40
47532;DHT22;33273;52.254;7.988;2022-12-29T16:44:17;8.10;93.70
47532;DHT22;33273;52.254;7.988;2022-12-29T16:49:39;7.90;94.40
47532;DHT22;33273;52.254;7.988;2022-12-29T16:52:28;7.90;94.70
47532;DHT22;33273;52.254;7.988;2022-12-29T16:54:58;7.90;94.90
47532;DHT22;33273;52.254;7.988;2022-12-29T16:57:29;8.00;96.50
47532;DHT22;33273;52.254;7.988;2022-12-29T17:00:01;8.00;96.50
47532;DHT22;33273;52.254;7.988;2022-12-29T17:02:30;7.90;96.30
47532;DHT22;33273;52.254;7.988;2022-12-29T17:05:02;8.00;96.50
47532;DHT22;33273;52.254;7.988;2022-12-29T17:07:31;8.00;96.50
47532;DHT22;33273;52.254;7.988;2022-12-29T17:09:57;8.00;96.40
47532;DHT22;33273;52.254;7.988;2022-12-29T17:12:28;7.90;96.50
47532;DHT22;33273;52.254;7.988;2022-12-29T17:17:55;8.00;96.30
47532;DHT22;33273;52.254;7.988;2022-12-29T17:20:29;7.90;96.10
47532;DHT22;33273;52.254;7.988;2022-12-29T17:22:57;8.00;95.90
47532;DHT22;33273;52.254;7.988;2022-12-29T17:25:30;8.00;95.70
47532;DHT22;33273;52.254;7.988;2022-12-29T17:27:59;8.00;95.60
47532;DHT22;33273;52.254;7.988;2022-12-29T17:30:27;8.00;95.50
47532;DHT22;33273;52.254;7.988;2022-12-29T17:33:05;8.00;95.40
47532;DHT22;33273;52.254;7.988;2022-12-29T17:35:33;8.00;94.90
47532;DHT22;33273;52.254;7.988;2022-12-29T17:38:02;8.00;95.30
47532;DHT22;33273;52.254;7.988;2022-12-29T17:40:35;8.00;94.40
47532;DHT22;33273;52.254;7.988;2022-12-29T17:43:02;8.00;93.90
47532;DHT22;33273;52.254;7.988;2022-12-29T17:45:31;8.00;93.70
47532;DHT22;33273;52.254;7.988;2022-12-29T17:47:59;8.00;93.40
47532;DHT22;33273;52.254;7.988;2022-12-29T17:50:27;8.00;93.00
47532;DHT22;33273;52.254;7.988;2022-12-29T17:53:15;7.90;92.80
47532;DHT22;33273;52.254;7.988;2022-12-29T17:55:44;7.90;92.90
47532;DHT22;33273;52.254;7.988;2022-12-29T17:58:17;7.90;92.50
47532;DHT22;33273;52.254;7.988;2022-12-29T18:00:47;7.90;92.40
47532;DHT22;33273;52.254;7.988;2022-12-29T18:03:30;7.90;92.40
47532;DHT22;33273;52.254;7.988;2022-12-29T18:05:57;7.90;92.30
47532;DHT22;33273;52.254;7.988;2022-12-29T18:08:25;7.80;92.80
47532;DHT22;33273;52.254;7.988;2022-12-29T18:10:54;7.90;92.00
47532;DHT22;33273;52.254;7.988;2022-12-29T18:13:23;7.80;91.60
47532;DHT22;33273;52.254;7.988;2022-12-29T18:15:51;7.80;91.30
47532;DHT22;33273;52.254;7.988;2022-12-29T18:18:25;7.80;90.70
47532;DHT22;33273;52.254;7.988;2022-12-29T18:20:54;7.80;90.00
47532;DHT22;33273;52.254;7.988;2022-12-29T18:23:23;7.80;89.90
47532;DHT22;33273;52.254;7.988;2022-12-29T18:28:38;7.80;89.90
47532;DHT22;33273;52.254;7.988;2022-12-29T18:31:24;7.80;89.20
47532;DHT22;33273;52.254;7.988;2022-12-29T18:33:51;7.80;89.30
47532;DHT22;33273;52.254;7.988;2022-12-29T18:36:19;7.80;89.20
47532;DHT22;33273;52.254;7.988;2022-12-29T18:38:46;7.90;88.90
47532;DHT22;33273;52.254;7.988;2022-12-29T18:41:16;7.90;88.10
47532;DHT22;33273;52.254;7.988;2022-12-29T18:43:46;7.90;87.40
47532;DHT22;33273;52.254;7.988;2022-12-29T18:46:13;7.90;86.30
47532;DHT22;33273;52.254;7.988;2022-12-29T18:48:39;7.90;85.70
47532;DHT22;33273;52.254;7.988;2022-12-29T18:51:05;7.90;84.90
47532;DHT22;33273;52.254;7.988;2022-12-29T18:53:32;7.80;84.70
47532;DHT22;33273;52.254;7.988;2022-12-29T18:56:08;7.80;84.70
47532;DHT22;33273;52.254;7.988;2022-12-29T18:58:34;7.90;85.00
47532;DHT22;33273;52.254;7.988;2022-12-29T19:01:00;7.90;86.40
47532;DHT22;33273;52.254;7.988;2022-12-29T19:03:33;7.90;84.40
47532;DHT22;33273;52.254;7.988;2022-12-29T19:05:59;7.80;84.10